sensor_id;sensor_type;location;lat;lon;timestamp;temperature;humidity
23114;DHT22;11726;50.122;8.832;2024-02-14T00:00:44;5.60;99.90
23114;DHT22;11726;50.122;8.832;2024-02-14T00:03:10;5.70;99.90
23114;DHT22;11726;50.122;8.832;2024-02-14T00:05:37;5.60;99.90
23114;DHT22;11726;50.122;8.832;2024-02-14T00:08:06;5.70;99.90
23114;DHT22;11726;50.122;8.832;2024-02-14T00:10:34;5.70;99.90
23114;DHT22;11726;50.122;8.832;2024-02-14T00:13:00;5.70;99.90
23114;DHT22;11726;50.122;8.832;2024-02-14T00:15:28;5.70;99.90
23114;DHT22;11726;50.122;8.832;2024-02-14T00:17:55;5.70;99.90
23114;DHT22;11726;50.122;8.832;2024-02-14T00:20:22;5.70;99.90
23114;DHT22;11726;50.122;8.832;2024-02-14T00:22:51;5.60;99.90
23114;DHT22;11726;50.122;8.832;2024-02-14T00:25:17;5.60;99.90
23114;DHT22;11726;50.122;8.832;2024-02-14T00:27:46;5.70;99.90
23114;DHT22;11726;50.122;8.832;2024-02-14T00:30:13;5.70;99.90
23114;DHT22;11726;50.122;8.832;2024-02-14T00:32:40;5.70;99.90
23114;DHT22;11726;50.122;8.832;2024-02-14T00:35:07;5.70;99.90
23114;DHT22;11726;50.122;8.832;2024-02-14T00:37:34;5.70;99.90
23114;DHT22;11726;50.122;8.832;2024-02-14T00:40:01;5.70;99.90
23114;DHT22;11726;50.122;8.832;2024-02-14T00:42:28;5.70;99.90
23114;DHT22;11726;50.122;8.832;2024-02-14T00:44:54;5.60;99.90
23114;DHT22;11726;50.122;8.832;2024-02-14T00:47:21;5.70;99.90
23114;DHT22;11726;50.122;8.832;2024-02-14T00:49:48;5.70;99.90
23114;DHT22;11726;50.122;8.832;2024-02-14T00:52:15;5.70;99.90
23114;DHT22;11726;50.122;8.832;2024-02-14T00:54:43;5.80;99.90
23114;DHT22;11726;50.122;8.832;2024-02-14T00:57:09;5.80;99.90
23114;DHT22;11726;50.122;8.832;2024-02-14T00:59:36;5.80;99.90
23114;DHT22;11726;50.122;8.832;2024-02-14T01:02:03;5.80;99.90
23114;DHT22;11726;50.122;8.832;2024-02-14T01:04:29;5.80;99.90
23114;DHT22;11726;50.122;8.832;2024-02-14T01:06:56;5.80;99.90
23114;DHT22;11726;50.122;8.832;2024-02-14T01:09:23;5.80;99.90
23114;DHT22;11726;50.122;8.832;2024-02-14T01:11:50;5.80;99.90
23114;DHT22;11726;50.122;8.832;2024-02-14T01:14:17;5.90;99.90
23114;DHT22;11726;50.122;8.832;2024-02-14T01:16:44;5.90;99.90
23114;DHT22;11726;50.122;8.832;2024-02-14T01:19:12;5.90;99.90
23114;DHT22;11726;50.122;8.832;2024-02-14T01:21:39;5.90;99.90
23114;DHT22;11726;50.122;8.832;2024-02-14T01:24:06;5.90;99.90
23114;DHT22;11726;50.122;8.832;2024-02-14T01:26:35;5.90;99.90
23114;DHT22;11726;50.122;8.832;2024-02-14T01:29:02;5.90;99.90
23114;DHT22;11726;50.122;8.832;2024-02-14T01:31:28;5.90;99.90
23114;DHT22;11726;50.122;8.832;2024-02-14T01:33:56;6.00;99.90
23114;DHT22;11726;50.122;8.832;2024-02-14T01:36:23;5.90;99.90
23114;DHT22;11726;50.122;8.832;2024-02-14T01:38:49;5.90;99.90
23114;DHT22;11726;50.122;8.832;2024-02-14T01:41:16;6.00;99.90
23114;DHT22;11726;50.122;8.832;2024-02-14T01:43:43;6.00;99.90
23114;DHT22;11726;50.122;8.832;2024-02-14T01:46:10;6.00;99.90
23114;DHT22;11726;50.122;8.832;2024-02-14T01:48:37;6.00;99.90
23114;DHT22;11726;50.122;8.832;2024-02-14T01:51:08;6.10;99.90
23114;DHT22;11726;50.122;8.832;2024-02-14T01:53:36;6.10;99.90
23114;DHT22;11726;50.122;8.832;2024-02-14T01:56:05;6.10;99.90
23114;DHT22;11726;50.122;8.832;2024-02-14T01:58:34;6.10;99.90
23114;DHT22;11726;50.122;8.832;2024-02-14T02:01:01;6.10;99.90
23114;DHT22;11726;50.122;8.832;2024-02-14T02:03:29;6.10;99.90
23114;DHT22;11726;50.122;8.832;2024-02-14T02:05:56;6.10;99.90
23114;DHT22;11726;50.122;8.832;2024-02-14T02:08:24;6.10;99.90
23114;DHT22;11726;50.122;8.832;2024-02-14T02:10:51;6.10;99.90
23114;DHT22;11726;50.122;8.832;2024-02-14T02:13:18;6.10;99.90
23114;DHT22;11726;50.122;8.832;2024-02-14T02:15:46;6.10;99.90
23114;DHT22;11726;50.122;8.832;2024-02-14T02:18:13;6.10;99.90
23114;DHT22;11726;50.122;8.832;2024-02-14T02:20:41;6.10;99.90
23114;DHT22;11726;50.122;8.832;2024-02-14T02:23:11;6.10;99.90
23114;DHT22;11726;50.122;8.832;2024-02-14T02:25:42;6.20;99.90
23114;DHT22;11726;50.122;8.832;2024-02-14T02:28:08;6.20;99.90
23114;DHT22;11726;50.122;8.832;2024-02-14T02:30:36;6.10;99.90
23114;DHT22;11726;50.122;8.832;2024-02-14T02:33:04;6.20;99.90
23114;DHT22;11726;50.122;8.832;2024-02-14T02:35:32;6.10;99.90
23114;DHT22;11726;50.122;8.832;2024-02-14T02:37:59;6.10;99.90
23114;DHT22;11726;50.122;8.832;2024-02-14T02:40:26;6.10;99.90
23114;DHT22;11726;50.122;8.832;2024-02-14T02:42:56;6.10;99.90
23114;DHT22;11726;50.122;8.832;2024-02-14T02:45:22;6.10;99.90
23114;DHT22;11726;50.122;8.832;2024-02-14T02:47:49;6.10;99.90
23114;DHT22;11726;50.122;8.832;2024-02-14T02:50:19;6.10;99.90
23114;DHT22;11726;50.122;8.832;2024-02-14T02:52:47;6.10;99.90
23114;DHT22;11726;50.122;8.832;2024-02-14T02:55:14;6.10;99.90
23114;DHT22;11726;50.122;8.832;2024-02-14T02:57:44;6.20;99.90
23114;DHT22;11726;50.122;8.832;2024-02-14T03:00:12;6.20;99.90
23114;DHT22;11726;50.122;8.832;2024-02-14T03:02:39;6.20;99.90
23114;DHT22;11726;50.122;8.832;2024-02-14T03:05:13;6.30;99.90
23114;DHT22;11726;50.122;8.832;2024-02-14T03:07:46;6.30;99.90
23114;DHT22;11726;50.122;8.832;2024-02-14T03:10:15;6.30;99.90
23114;DHT22;11726;50.122;8.832;2024-02-14T03:12:49;6.30;99.90
23114;DHT22;11726;50.122;8.832;2024-02-14T03:15:16;6.40;99.90
23114;DHT22;11726;50.122;8.832;2024-02-14T03:17:43;6.40;99.90
23114;DHT22;11726;50.122;8.832;2024-02-14T03:20:11;6.40;99.90
23114;DHT22;11726;50.122;8.832;2024-02-14T03:22:44;6.40;99.90
23114;DHT22;11726;50.122;8.832;2024-02-14T03:25:13;6.40;99.90
23114;DHT22;11726;50.122;8.832;2024-02-14T03:27:40;6.40;99.90
23114;DHT22;11726;50.122;8.832;2024-02-14T03:30:07;6.40;99.90
23114;DHT22;11726;50.122;8.832;2024-02-14T03:32:34;6.40;99.90
23114;DHT22;11726;50.122;8.832;2024-02-14T03:35:01;6.40;99.90
23114;DHT22;11726;50.122;8.832;2024-02-14T03:37:28;6.40;99.90
23114;DHT22;11726;50.122;8.832;2024-02-14T03:39:54;6.40;99.90
23114;DHT22;11726;50.122;8.832;2024-02-14T03:42:21;6.40;99.90
23114;DHT22;11726;50.122;8.832;2024-02-14T03:44:48;6.50;99.90
23114;DHT22;11726;50.122;8.832;2024-02-14T03:47:14;6.50;99.90
23114;DHT22;11726;50.122;8.832;2024-02-14T03:49:41;6.50;99.90
23114;DHT22;11726;50.122;8.832;2024-02-14T03:52:08;6.60;99.90
23114;DHT22;11726;50.122;8.832;2024-02-14T03:54:38;6.60;99.90
23114;DHT22;11726;50.122;8.832;2024-02-14T03:57:05;6.70;99.90
23114;DHT22;11726;50.122;8.832;2024-02-14T03:59:37;6.70;99.90
23114;DHT22;11726;50.122;8.832;2024-02-14T04:02:07;6.70;99.90
23114;DHT22;11726;50.122;8.832;2024-02-14T04:04:37;6.70;99.90
23114;DHT22;11726;50.122;8.832;2024-02-14T04:07:04;6.70;99.90
23114;DHT22;11726;50.122;8.832;2024-02-14T04:09:34;6.70;99.90
23114;DHT22;11726;50.122;8.832;2024-02-14T04:12:01;6.70;99.90
23114;DHT22;11726;50.122;8.832;2024-02-14T04:14:28;6.80;99.90
23114;DHT22;11726;50.122;8.832;2024-02-14T04:16:55;6.90;99.90
23114;DHT22;11726;50.122;8.832;2024-02-14T04:19:22;7.30;99.90
23114;DHT22;11726;50.122;8.832;2024-02-14T04:21:49;7.50;99.90
23114;DHT22;11726;50.122;8.832;2024-02-14T04:24:15;7.70;99.90
23114;DHT22;11726;50.122;8.832;2024-02-14T04:26:42;7.80;99.90
23114;DHT22;11726;50.122;8.832;2024-02-14T04:29:09;8.00;99.90
23114;DHT22;11726;50.122;8.832;2024-02-14T04:31:35;8.10;99.90
23114;DHT22;11726;50.122;8.832;2024-02-14T04:34:02;8.10;99.90
23114;DHT22;11726;50.122;8.832;2024-02-14T04:36:29;8.20;99.90
23114;DHT22;11726;50.122;8.832;2024-02-14T04:38:57;8.20;99.90
23114;DHT22;11726;50.122;8.832;2024-02-14T04:41:24;8.30;99.90
23114;DHT22;11726;50.122;8.832;2024-02-14T04:43:50;8.40;99.90
23114;DHT22;11726;50.122;8.832;2024-02-14T04:46:17;8.30;99.90
23114;DHT22;11726;50.122;8.832;2024-02-14T04:48:44;8.30;99.90
23114;DHT22;11726;50.122;8.832;2024-02-14T04:51:10;8.30;99.90
23114;DHT22;11726;50.122;8.832;2024-02-14T04:53:37;8.30;99.90
23114;DHT22;11726;50.122;8.832;2024-02-14T04:56:04;8.30;99.90
23114;DHT22;11726;50.122;8.832;2024-02-14T04:58:31;8.40;99.90
23114;DHT22;11726;50.122;8.832;2024-02-14T05:00:57;8.40;99.90
23114;DHT22;11726;50.122;8.832;2024-02-14T05:03:24;8.50;99.90
23114;DHT22;11726;50.122;8.832;2024-02-14T05:05:52;8.40;99.90
23114;DHT22;11726;50.122;8.832;2024-02-14T05:08:19;8.40;99.90
23114;DHT22;11726;50.122;8.832;2024-02-14T05:10:46;8.30;99.90
23114;DHT22;11726;50.122;8.832;2024-02-14T05:13:12;8.40;99.90
23114;DHT22;11726;50.122;8.832;2024-02-14T05:15:42;8.50;99.90
23114;DHT22;11726;50.122;8.832;2024-02-14T05:18:09;8.50;99.90
23114;DHT22;11726;50.122;8.832;2024-02-14T05:20:36;8.50;99.90
23114;DHT22;11726;50.122;8.832;2024-02-14T05:23:04;8.50;99.90
23114;DHT22;11726;50.122;8.832;2024-02-14T05:25:31;8.50;99.90
23114;DHT22;11726;50.122;8.832;2024-02-14T05:27:59;8.50;99.90
23114;DHT22;11726;50.122;8.832;2024-02-14T05:30:26;8.60;99.90
23114;DHT22;11726;50.122;8.832;2024-02-14T05:32:54;8.50;99.90
23114;DHT22;11726;50.122;8.832;2024-02-14T05:35:22;8.50;99.90
23114;DHT22;11726;50.122;8.832;2024-02-14T05:37:49;8.50;99.90
23114;DHT22;11726;50.122;8.832;2024-02-14T05:40:16;8.50;99.90
23114;DHT22;11726;50.122;8.832;2024-02-14T05:42:43;8.40;99.90
23114;DHT22;11726;50.122;8.832;2024-02-14T05:45:12;8.50;99.90
23114;DHT22;11726;50.122;8.832;2024-02-14T05:47:39;8.40;99.90
23114;DHT22;11726;50.122;8.832;2024-02-14T05:50:07;8.40;99.90
23114;DHT22;11726;50.122;8.832;2024-02-14T05:52:35;8.40;99.90
23114;DHT22;11726;50.122;8.832;2024-02-14T05:55:02;8.50;99.90
23114;DHT22;11726;50.122;8.832;2024-02-14T05:57:30;8.40;99.90
23114;DHT22;11726;50.122;8.832;2024-02-14T05:59:56;8.40;99.90
23114;DHT22;11726;50.122;8.832;2024-02-14T06:02:23;8.50;99.90
23114;DHT22;11726;50.122;8.832;2024-02-14T06:04:50;8.50;99.90
23114;DHT22;11726;50.122;8.832;2024-02-14T06:07:17;8.50;99.90
23114;DHT22;11726;50.122;8.832;2024-02-14T06:09:44;8.50;99.90
23114;DHT22;11726;50.122;8.832;2024-02-14T06:12:12;8.40;99.90
23114;DHT22;11726;50.122;8.832;2024-02-14T06:14:38;8.50;99.90
23114;DHT22;11726;50.122;8.832;2024-02-14T06:17:05;8.50;99.90
23114;DHT22;11726;50.122;8.832;2024-02-14T06:19:32;8.50;99.90
23114;DHT22;11726;50.122;8.832;2024-02-14T06:22:05;8.50;99.90
23114;DHT22;11726;50.122;8.832;2024-02-14T06:24:32;8.50;99.90
23114;DHT22;11726;50.122;8.832;2024-02-14T06:26:59;8.50;99.90
23114;DHT22;11726;50.122;8.832;2024-02-14T06:29:26;8.50;99.90
23114;DHT22;11726;50.122;8.832;2024-02-14T06:31:53;8.50;99.90
23114;DHT22;11726;50.122;8.832;2024-02-14T06:34:20;8.50;99.90
23114;DHT22;11726;50.122;8.832;2024-02-14T06:36:47;8.60;99.90
23114;DHT22;11726;50.122;8.832;2024-02-14T06:39:14;8.70;99.90
23114;DHT22;11726;50.122;8.832;2024-02-14T06:41:41;8.70;99.90
23114;DHT22;11726;50.122;8.832;2024-02-14T06:44:07;8.70;99.90
23114;DHT22;11726;50.122;8.832;2024-02-14T06:46:34;8.60;99.90
23114;DHT22;11726;50.122;8.832;2024-02-14T06:49:04;8.60;99.90
23114;DHT22;11726;50.122;8.832;2024-02-14T06:51:31;8.60;99.90
23114;DHT22;11726;50.122;8.832;2024-02-14T06:53:57;8.60;99.90
23114;DHT22;11726;50.122;8.832;2024-02-14T06:56:24;8.60;99.90
23114;DHT22;11726;50.122;8.832;2024-02-14T06:58:51;8.50;99.90
23114;DHT22;11726;50.122;8.832;2024-02-14T07:01:20;8.60;99.90
23114;DHT22;11726;50.122;8.832;2024-02-14T07:03:50;8.60;99.90
23114;DHT22;11726;50.122;8.832;2024-02-14T07:06:17;8.60;99.90
23114;DHT22;11726;50.122;8.832;2024-02-14T07:08:44;8.50;99.90
23114;DHT22;11726;50.122;8.832;2024-02-14T07:11:11;8.50;99.90
23114;DHT22;11726;50.122;8.832;2024-02-14T07:13:38;8.50;99.90
23114;DHT22;11726;50.122;8.832;2024-02-14T07:16:05;8.50;99.90
23114;DHT22;11726;50.122;8.832;2024-02-14T07:18:35;8.50;99.90
23114;DHT22;11726;50.122;8.832;2024-02-14T07:21:02;8.50;99.90
23114;DHT22;11726;50.122;8.832;2024-02-14T07:23:30;8.50;99.90
23114;DHT22;11726;50.122;8.832;2024-02-14T07:25:57;8.50;99.90
23114;DHT22;11726;50.122;8.832;2024-02-14T07:28:23;8.60;99.90
23114;DHT22;11726;50.122;8.832;2024-02-14T07:30:50;8.60;99.90
23114;DHT22;11726;50.122;8.832;2024-02-14T07:33:17;8.70;99.90
23114;DHT22;11726;50.122;8.832;2024-02-14T07:35:44;8.70;99.90
23114;DHT22;11726;50.122;8.832;2024-02-14T07:38:10;8.70;99.90
23114;DHT22;11726;50.122;8.832;2024-02-14T07:40:37;8.80;99.90
23114;DHT22;11726;50.122;8.832;2024-02-14T07:43:05;8.80;99.90
23114;DHT22;11726;50.122;8.832;2024-02-14T07:45:33;8.90;99.90
23114;DHT22;11726;50.122;8.832;2024-02-14T07:48:00;8.90;99.90
23114;DHT22;11726;50.122;8.832;2024-02-14T07:50:27;9.00;99.90
23114;DHT22;11726;50.122;8.832;2024-02-14T07:52:54;8.90;99.90
23114;DHT22;11726;50.122;8.832;2024-02-14T07:55:21;9.00;99.90
23114;DHT22;11726;50.122;8.832;2024-02-14T07:57:48;9.00;99.90
23114;DHT22;11726;50.122;8.832;2024-02-14T08:00:15;9.00;99.90
23114;DHT22;11726;50.122;8.832;2024-02-14T08:02:49;9.00;99.90
23114;DHT22;11726;50.122;8.832;2024-02-14T08:05:16;9.10;99.90
23114;DHT22;11726;50.122;8.832;2024-02-14T08:07:44;9.10;99.90
23114;DHT22;11726;50.122;8.832;2024-02-14T08:10:13;9.10;99.90
23114;DHT22;11726;50.122;8.832;2024-02-14T08:12:40;9.10;99.90
23114;DHT22;11726;50.122;8.832;2024-02-14T08:15:07;9.20;99.90
23114;DHT22;11726;50.122;8.832;2024-02-14T08:17:34;9.20;99.90
23114;DHT22;11726;50.122;8.832;2024-02-14T08:20:02;9.20;99.90
23114;DHT22;11726;50.122;8.832;2024-02-14T08:22:30;9.30;99.90
23114;DHT22;11726;50.122;8.832;2024-02-14T08:24:58;9.20;99.90
23114;DHT22;11726;50.122;8.832;2024-02-14T08:27:25;9.20;99.90
23114;DHT22;11726;50.122;8.832;2024-02-14T08:29:52;9.30;99.90
23114;DHT22;11726;50.122;8.832;2024-02-14T08:32:20;9.40;99.90
23114;DHT22;11726;50.122;8.832;2024-02-14T08:34:48;9.50;99.90
23114;DHT22;11726;50.122;8.832;2024-02-14T08:37:16;9.50;99.90
23114;DHT22;11726;50.122;8.832;2024-02-14T08:39:43;9.60;99.90
23114;DHT22;11726;50.122;8.832;2024-02-14T08:42:10;9.50;99.90
23114;DHT22;11726;50.122;8.832;2024-02-14T08:44:36;9.60;99.90
23114;DHT22;11726;50.122;8.832;2024-02-14T08:47:04;9.60;99.90
23114;DHT22;11726;50.122;8.832;2024-02-14T08:49:31;9.60;99.90
23114;DHT22;11726;50.122;8.832;2024-02-14T08:51:58;9.60;99.90
23114;DHT22;11726;50.122;8.832;2024-02-14T08:54:24;9.60;99.90
23114;DHT22;11726;50.122;8.832;2024-02-14T08:56:51;9.70;99.90
23114;DHT22;11726;50.122;8.832;2024-02-14T08:59:21;9.70;99.90
23114;DHT22;11726;50.122;8.832;2024-02-14T09:01:48;9.60;99.90
23114;DHT22;11726;50.122;8.832;2024-02-14T09:04:15;9.60;99.90
23114;DHT22;11726;50.122;8.832;2024-02-14T09:06:42;9.60;99.90
23114;DHT22;11726;50.122;8.832;2024-02-14T09:09:08;9.50;99.90
23114;DHT22;11726;50.122;8.832;2024-02-14T09:11:37;9.60;99.90
23114;DHT22;11726;50.122;8.832;2024-02-14T09:14:03;9.60;99.90
23114;DHT22;11726;50.122;8.832;2024-02-14T09:16:33;9.60;99.90
23114;DHT22;11726;50.122;8.832;2024-02-14T09:19:00;9.60;99.90
23114;DHT22;11726;50.122;8.832;2024-02-14T09:21:36;9.60;99.90
23114;DHT22;11726;50.122;8.832;2024-02-14T09:24:03;9.60;99.90
23114;DHT22;11726;50.122;8.832;2024-02-14T09:26:30;9.60;99.90
23114;DHT22;11726;50.122;8.832;2024-02-14T09:28:57;9.60;99.90
23114;DHT22;11726;50.122;8.832;2024-02-14T09:31:23;9.70;99.90
23114;DHT22;11726;50.122;8.832;2024-02-14T09:33:50;9.70;99.90
23114;DHT22;11726;50.122;8.832;2024-02-14T09:36:17;9.70;99.90
23114;DHT22;11726;50.122;8.832;2024-02-14T09:38:46;9.70;99.90
23114;DHT22;11726;50.122;8.832;2024-02-14T09:41:22;9.60;99.90
23114;DHT22;11726;50.122;8.832;2024-02-14T09:43:50;9.70;99.90
23114;DHT22;11726;50.122;8.832;2024-02-14T09:46:17;9.70;99.90
23114;DHT22;11726;50.122;8.832;2024-02-14T09:48:45;9.80;99.90
23114;DHT22;11726;50.122;8.832;2024-02-14T09:51:13;9.90;99.90
23114;DHT22;11726;50.122;8.832;2024-02-14T09:53:40;9.90;99.90
23114;DHT22;11726;50.122;8.832;2024-02-14T09:56:10;9.90;99.90
23114;DHT22;11726;50.122;8.832;2024-02-14T09:58:37;9.90;99.90
23114;DHT22;11726;50.122;8.832;2024-02-14T10:01:04;10.00;99.90
23114;DHT22;11726;50.122;8.832;2024-02-14T10:03:33;10.00;99.90
23114;DHT22;11726;50.122;8.832;2024-02-14T10:06:02;10.10;99.90
23114;DHT22;11726;50.122;8.832;2024-02-14T10:08:29;10.00;99.90
23114;DHT22;11726;50.122;8.832;2024-02-14T10:10:57;10.00;99.90
23114;DHT22;11726;50.122;8.832;2024-02-14T10:13:28;10.10;99.90
23114;DHT22;11726;50.122;8.832;2024-02-14T10:15:56;10.10;99.90
23114;DHT22;11726;50.122;8.832;2024-02-14T10:18:22;10.20;99.90
23114;DHT22;11726;50.122;8.832;2024-02-14T10:20:54;10.20;99.90
23114;DHT22;11726;50.122;8.832;2024-02-14T10:23:21;10.20;99.90
23114;DHT22;11726;50.122;8.832;2024-02-14T10:25:53;10.20;99.90
23114;DHT22;11726;50.122;8.832;2024-02-14T10:28:22;10.20;99.90
23114;DHT22;11726;50.122;8.832;2024-02-14T10:31:02;10.30;99.90
23114;DHT22;11726;50.122;8.832;2024-02-14T10:33:28;10.30;99.90
23114;DHT22;11726;50.122;8.832;2024-02-14T10:35:58;10.40;99.90
23114;DHT22;11726;50.122;8.832;2024-02-14T10:38:32;10.40;99.90
23114;DHT22;11726;50.122;8.832;2024-02-14T10:41:02;10.50;99.90
23114;DHT22;11726;50.122;8.832;2024-02-14T10:43:31;10.60;99.90
23114;DHT22;11726;50.122;8.832;2024-02-14T10:46:18;10.60;99.90
23114;DHT22;11726;50.122;8.832;2024-02-14T10:48:46;10.70;99.90
23114;DHT22;11726;50.122;8.832;2024-02-14T10:51:15;10.80;99.90
23114;DHT22;11726;50.122;8.832;2024-02-14T10:53:45;10.70;99.90
23114;DHT22;11726;50.122;8.832;2024-02-14T10:56:17;10.60;99.90
23114;DHT22;11726;50.122;8.832;2024-02-14T10:58:47;10.70;99.90
23114;DHT22;11726;50.122;8.832;2024-02-14T11:01:14;10.60;99.90
23114;DHT22;11726;50.122;8.832;2024-02-14T11:03:43;10.70;99.90
23114;DHT22;11726;50.122;8.832;2024-02-14T11:06:15;10.70;99.90
23114;DHT22;11726;50.122;8.832;2024-02-14T11:09:02;10.80;99.90
23114;DHT22;11726;50.122;8.832;2024-02-14T11:11:34;10.90;99.90
23114;DHT22;11726;50.122;8.832;2024-02-14T11:14:01;11.00;99.90
23114;DHT22;11726;50.122;8.832;2024-02-14T11:16:31;10.90;99.90
23114;DHT22;11726;50.122;8.832;2024-02-14T11:19:06;10.80;99.90
23114;DHT22;11726;50.122;8.832;2024-02-14T11:21:42;10.90;99.90
23114;DHT22;11726;50.122;8.832;2024-02-14T11:24:11;11.10;99.90
23114;DHT22;11726;50.122;8.832;2024-02-14T11:26:40;11.30;99.90
23114;DHT22;11726;50.122;8.832;2024-02-14T11:29:07;11.20;99.90
23114;DHT22;11726;50.122;8.832;2024-02-14T11:31:34;12.10;99.90
23114;DHT22;11726;50.122;8.832;2024-02-14T11:34:07;11.80;99.90
23114;DHT22;11726;50.122;8.832;2024-02-14T11:36:36;11.90;99.90
23114;DHT22;11726;50.122;8.832;2024-02-14T11:39:03;11.60;99.90
23114;DHT22;11726;50.122;8.832;2024-02-14T11:41:34;11.50;99.90
23114;DHT22;11726;50.122;8.832;2024-02-14T11:44:02;11.60;99.90
23114;DHT22;11726;50.122;8.832;2024-02-14T11:46:33;12.00;99.90
23114;DHT22;11726;50.122;8.832;2024-02-14T11:49:05;12.00;99.90
23114;DHT22;11726;50.122;8.832;2024-02-14T11:51:35;12.00;99.90
23114;DHT22;11726;50.122;8.832;2024-02-14T11:54:03;12.00;99.90
23114;DHT22;11726;50.122;8.832;2024-02-14T11:56:36;11.80;99.90
23114;DHT22;11726;50.122;8.832;2024-02-14T11:59:05;11.70;99.90
23114;DHT22;11726;50.122;8.832;2024-02-14T12:01:36;11.70;99.90
23114;DHT22;11726;50.122;8.832;2024-02-14T12:04:08;11.60;99.90
23114;DHT22;11726;50.122;8.832;2024-02-14T12:06:36;11.70;99.90
23114;DHT22;11726;50.122;8.832;2024-02-14T12:09:04;11.70;99.90
23114;DHT22;11726;50.122;8.832;2024-02-14T12:11:32;11.70;99.90
23114;DHT22;11726;50.122;8.832;2024-02-14T12:14:05;11.70;99.90
23114;DHT22;11726;50.122;8.832;2024-02-14T12:16:37;11.60;99.90
23114;DHT22;11726;50.122;8.832;2024-02-14T12:19:10;11.50;99.90
23114;DHT22;11726;50.122;8.832;2024-02-14T12:21:42;11.50;99.90
23114;DHT22;11726;50.122;8.832;2024-02-14T12:24:13;11.50;99.90
23114;DHT22;11726;50.122;8.832;2024-02-14T12:26:42;11.50;99.90
23114;DHT22;11726;50.122;8.832;2024-02-14T12:29:11;11.60;99.90
23114;DHT22;11726;50.122;8.832;2024-02-14T12:31:40;11.60;99.90
23114;DHT22;11726;50.122;8.832;2024-02-14T12:34:06;11.50;99.90
23114;DHT22;11726;50.122;8.832;2024-02-14T12:36:34;11.50;99.90
23114;DHT22;11726;50.122;8.832;2024-02-14T12:39:01;11.50;99.90
23114;DHT22;11726;50.122;8.832;2024-02-14T12:41:30;11.50;99.90
23114;DHT22;11726;50.122;8.832;2024-02-14T12:44:00;11.60;99.90
23114;DHT22;11726;50.122;8.832;2024-02-14T12:46:27;11.60;99.90
23114;DHT22;11726;50.122;8.832;2024-02-14T12:48:54;11.60;99.90
23114;DHT22;11726;50.122;8.832;2024-02-14T12:51:21;11.60;99.90
23114;DHT22;11726;50.122;8.832;2024-02-14T12:53:48;11.50;99.90
23114;DHT22;11726;50.122;8.832;2024-02-14T12:56:15;11.50;99.90
23114;DHT22;11726;50.122;8.832;2024-02-14T12:58:42;11.50;99.90
23114;DHT22;11726;50.122;8.832;2024-02-14T13:01:09;11.40;99.90
23114;DHT22;11726;50.122;8.832;2024-02-14T13:03:38;11.30;99.90
23114;DHT22;11726;50.122;8.832;2024-02-14T13:06:05;11.40;99.90
23114;DHT22;11726;50.122;8.832;2024-02-14T13:08:32;11.40;99.90
23114;DHT22;11726;50.122;8.832;2024-02-14T13:10:59;11.40;99.90
23114;DHT22;11726;50.122;8.832;2024-02-14T13:13:25;11.40;99.90
23114;DHT22;11726;50.122;8.832;2024-02-14T13:15:52;11.40;99.90
23114;DHT22;11726;50.122;8.832;2024-02-14T13:18:19;11.40;99.90
23114;DHT22;11726;50.122;8.832;2024-02-14T13:20:46;11.40;99.90
23114;DHT22;11726;50.122;8.832;2024-02-14T13:23:13;11.40;99.90
23114;DHT22;11726;50.122;8.832;2024-02-14T13:25:41;11.40;99.90
23114;DHT22;11726;50.122;8.832;2024-02-14T13:28:07;11.40;99.90
23114;DHT22;11726;50.122;8.832;2024-02-14T13:30:34;11.40;99.90
23114;DHT22;11726;50.122;8.832;2024-02-14T13:33:04;11.50;99.90
23114;DHT22;11726;50.122;8.832;2024-02-14T13:35:31;11.40;99.90
23114;DHT22;11726;50.122;8.832;2024-02-14T13:37:58;11.40;99.90
23114;DHT22;11726;50.122;8.832;2024-02-14T13:40:25;11.40;99.90
23114;DHT22;11726;50.122;8.832;2024-02-14T13:42:52;11.40;99.90
23114;DHT22;11726;50.122;8.832;2024-02-14T13:45:19;11.40;99.90
23114;DHT22;11726;50.122;8.832;2024-02-14T13:47:45;11.50;99.90
23114;DHT22;11726;50.122;8.832;2024-02-14T13:50:13;11.40;99.90
23114;DHT22;11726;50.122;8.832;2024-02-14T13:52:40;11.40;99.90
23114;DHT22;11726;50.122;8.832;2024-02-14T13:55:07;11.40;99.90
23114;DHT22;11726;50.122;8.832;2024-02-14T13:57:37;11.40;99.90
23114;DHT22;11726;50.122;8.832;2024-02-14T14:00:08;11.40;99.90
23114;DHT22;11726;50.122;8.832;2024-02-14T14:02:38;11.40;99.90
23114;DHT22;11726;50.122;8.832;2024-02-14T14:05:09;11.40;99.90
23114;DHT22;11726;50.122;8.832;2024-02-14T14:07:37;11.40;99.90
23114;DHT22;11726;50.122;8.832;2024-02-14T14:10:23;11.40;99.90
23114;DHT22;11726;50.122;8.832;2024-02-14T14:12:52;11.40;99.90
23114;DHT22;11726;50.122;8.832;2024-02-14T14:15:18;11.40;99.90
23114;DHT22;11726;50.122;8.832;2024-02-14T14:17:45;11.40;99.90
23114;DHT22;11726;50.122;8.832;2024-02-14T14:20:13;11.30;99.90
23114;DHT22;11726;50.122;8.832;2024-02-14T14:22:40;11.40;99.90
23114;DHT22;11726;50.122;8.832;2024-02-14T14:25:07;11.40;99.90
23114;DHT22;11726;50.122;8.832;2024-02-14T14:27:34;11.40;99.90
23114;DHT22;11726;50.122;8.832;2024-02-14T14:30:01;11.40;99.90
23114;DHT22;11726;50.122;8.832;2024-02-14T14:32:28;11.50;99.90
23114;DHT22;11726;50.122;8.832;2024-02-14T14:34:55;11.50;99.90
23114;DHT22;11726;50.122;8.832;2024-02-14T14:37:22;11.40;99.90
23114;DHT22;11726;50.122;8.832;2024-02-14T14:39:49;11.40;99.90
23114;DHT22;11726;50.122;8.832;2024-02-14T14:42:16;11.40;99.90
23114;DHT22;11726;50.122;8.832;2024-02-14T14:44:44;11.40;99.90
23114;DHT22;11726;50.122;8.832;2024-02-14T14:47:11;11.40;99.90
23114;DHT22;11726;50.122;8.832;2024-02-14T14:49:38;11.40;99.90
23114;DHT22;11726;50.122;8.832;2024-02-14T14:52:05;11.40;99.90
23114;DHT22;11726;50.122;8.832;2024-02-14T14:54:32;11.40;99.90
23114;DHT22;11726;50.122;8.832;2024-02-14T14:56:59;11.40;99.90
23114;DHT22;11726;50.122;8.832;2024-02-14T14:59:26;11.30;99.90
23114;DHT22;11726;50.122;8.832;2024-02-14T15:01:53;11.30;99.90
23114;DHT22;11726;50.122;8.832;2024-02-14T15:04:20;11.30;99.90
23114;DHT22;11726;50.122;8.832;2024-02-14T15:06:47;11.30;99.90
23114;DHT22;11726;50.122;8.832;2024-02-14T15:09:17;11.30;99.90
23114;DHT22;11726;50.122;8.832;2024-02-14T15:11:44;11.30;99.90
23114;DHT22;11726;50.122;8.832;2024-02-14T15:14:11;11.20;99.90
23114;DHT22;11726;50.122;8.832;2024-02-14T15:16:37;11.20;99.90
23114;DHT22;11726;50.122;8.832;2024-02-14T15:19:04;11.20;99.90
23114;DHT22;11726;50.122;8.832;2024-02-14T15:21:31;11.20;99.90
23114;DHT22;11726;50.122;8.832;2024-02-14T15:23:58;11.20;99.90
23114;DHT22;11726;50.122;8.832;2024-02-14T15:26:25;11.10;99.90
23114;DHT22;11726;50.122;8.832;2024-02-14T15:28:51;11.10;99.90
23114;DHT22;11726;50.122;8.832;2024-02-14T15:31:44;11.10;99.90
23114;DHT22;11726;50.122;8.832;2024-02-14T15:34:29;11.10;99.90
23114;DHT22;11726;50.122;8.832;2024-02-14T15:36:58;11.10;99.90
23114;DHT22;11726;50.122;8.832;2024-02-14T15:39:25;11.10;99.90
23114;DHT22;11726;50.122;8.832;2024-02-14T15:41:52;11.00;99.90
23114;DHT22;11726;50.122;8.832;2024-02-14T15:44:22;11.10;99.90